Time;durP1;ratioP1;P1;durP2;ratioP2;P2;SDS_P1;SDS_P2;PMS_P1;PMS_P2;Temp;Humidity;BMP_temperature;BMP_pressure;BME280_temperature;BME280_humidity;BME280_pressure;Samples;Min_cycle;Max_cycle;Signal;HPM_P1;HPM_P2
2022/08/24 00:00:21;;;;;;;11.05;4.38;;;;;;;23.08;72.99;100757.34;4977325;28;102593;-51
2022/08/24 00:02:48;;;;;;;13.57;4.45;;;;;;;23.08;72.68;100766.53;4963132;28;103852;-50
2022/08/24 00:05:16;;;;;;;9.27;4.20;;;;;;;23.07;73.18;100762.09;4956235;28;101934;-49
2022/08/24 00:07:44;;;;;;;8.98;4.32;;;;;;;23.07;72.85;100772.41;4955953;28;102320;-50
2022/08/24 00:10:12;;;;;;;7.07;3.75;;;;;;;23.08;72.86;100772.06;4957282;28;102145;-50
2022/08/24 00:12:39;;;;;;;9.05;4.10;;;;;;;23.07;72.86;100772.41;4955284;28;104095;-49
2022/08/24 00:15:09;;;;;;;7.55;4.10;;;;;;;23.06;73.00;100766.06;4955873;28;102160;-49
2022/08/24 00:17:37;;;;;;;7.82;3.92;;;;;;;23.06;72.81;100766.06;4955355;28;102152;-50
2022/08/24 00:20:06;;;;;;;7.28;3.55;;;;;;;23.06;72.80;100768.03;4939256;28;102522;-50
2022/08/24 00:22:35;;;;;;;13.32;4.78;;;;;;;23.05;72.88;100764.44;4944482;28;104063;-50
2022/08/24 00:25:02;;;;;;;10.90;4.22;;;;;;;23.06;73.06;100771.59;4956272;28;102201;-50
2022/08/24 00:27:29;;;;;;;10.00;4.57;;;;;;;23.07;72.94;100767.66;4955264;28;103611;-50
2022/08/24 00:29:56;;;;;;;8.35;4.38;;;;;;;23.06;72.87;100768.84;4955597;28;102083;-50
2022/08/24 00:32:23;;;;;;;9.75;4.55;;;;;;;23.07;72.84;100773.22;4955638;28;104192;-50
2022/08/24 00:34:50;;;;;;;10.35;4.50;;;;;;;23.07;73.02;100766.84;4955667;28;101999;-50
2022/08/24 00:37:17;;;;;;;7.83;4.43;;;;;;;23.07;72.86;100778.75;4954985;28;102208;-50
2022/08/24 00:39:44;;;;;;;6.28;4.38;;;;;;;23.06;72.96;100785.47;4956929;28;102182;-49
2022/08/24 00:42:10;;;;;;;6.35;4.03;;;;;;;23.07;72.93;100786.28;4955029;27;107988;-48
2022/08/24 00:44:36;;;;;;;7.72;3.85;;;;;;;23.05;73.21;100781.09;4955900;28;102193;-49
2022/08/24 00:47:13;;;;;;;8.30;4.05;;;;;;;23.05;72.88;100786.66;4954568;27;102224;-50
2022/08/24 00:49:48;;;;;;;6.10;3.65;;;;;;;23.05;72.88;100778.31;4956870;27;102292;-50
2022/08/24 00:52:24;;;;;;;7.70;3.63;;;;;;;23.07;72.93;100784.31;4955487;28;104065;-49
2022/08/24 00:54:54;;;;;;;7.10;4.00;;;;;;;23.05;72.92;100783.88;4949224;28;102280;-50
2022/08/24 00:57:26;;;;;;;7.75;4.10;;;;;;;23.07;73.00;100783.50;4955863;28;102033;-49
2022/08/24 00:59:56;;;;;;;9.48;4.15;;;;;;;23.06;73.05;100787.47;4956189;28;102029;-49
2022/08/24 01:02:28;;;;;;;7.40;4.10;;;;;;;23.05;73.15;100789.44;4954963;28;103938;-50
2022/08/24 01:04:58;;;;;;;8.63;4.25;;;;;;;23.06;73.25;100791.03;4955838;28;101914;-49
2022/08/24 01:07:29;;;;;;;10.00;3.60;;;;;;;23.07;73.22;100789.06;4966186;28;102331;-49
2022/08/24 01:09:57;;;;;;;7.40;4.20;;;;;;;23.05;73.11;100786.66;4955727;28;102552;-49
2022/08/24 01:12:27;;;;;;;7.82;4.20;;;;;;;23.06;73.27;100796.59;4954760;28;104030;-49
2022/08/24 01:14:57;;;;;;;8.73;4.03;;;;;;;23.06;73.61;100796.59;4955214;28;102364;-50
2022/08/24 01:20:10;;;;;;;7.63;3.70;;;;;;;23.05;73.29;100794.97;4955799;28;103221;-49
2022/08/24 01:23:01;;;;;;;6.83;3.83;;;;;;;23.06;73.18;100799.38;4954958;28;104114;-49
2022/08/24 01:25:31;;;;;;;7.68;3.85;;;;;;;23.07;73.10;100800.97;4955470;28;102234;-49
2022/08/24 01:28:02;;;;;;;5.75;3.88;;;;;;;23.07;73.02;100800.16;4943822;28;102535;-49
2022/08/24 01:30:29;;;;;;;7.50;4.10;;;;;;;23.05;73.38;100797.75;4953923;28;102240;-49
2022/08/24 01:32:58;;;;;;;6.60;4.03;;;;;;;23.05;73.27;100806.09;4954662;28;108105;-49
2022/08/24 01:35:24;;;;;;;;;;;;;;;23.04;73.11;100798.91;4956023;28;102654;-49
2022/08/24 01:37:53;;;;;;;5.57;3.60;;;;;;;23.05;73.41;100794.97;4955120;28;102122;-50
2022/08/24 01:40:22;;;;;;;7.43;3.85;;;;;;;23.05;73.08;100800.53;4946922;28;102190;-50
2022/08/24 01:42:51;;;;;;;;;;;;;;;23.05;73.28;100806.09;4953455;28;103806;-49
2022/08/24 01:45:18;;;;;;;6.63;4.00;;;;;;;23.03;73.10;100800.06;4941386;28;101979;-49
2022/08/24 01:47:45;;;;;;;5.95;3.88;;;;;;;23.04;73.05;100798.91;4935595;28;102225;-49
2022/08/24 01:50:12;;;;;;;11.23;4.47;;;;;;;23.04;73.17;100801.66;4940401;28;102560;-49
2022/08/24 01:52:41;;;;;;;5.53;3.80;;;;;;;23.03;72.93;100800.06;4953957;28;103925;-49
2022/08/24 01:55:09;;;;;;;10.43;3.60;;;;;;;23.03;73.05;100805.63;4972355;28;101900;-49
2022/08/24 01:57:36;;;;;;;6.15;4.07;;;;;;;23.03;73.05;100802.84;4974701;28;102449;-50
2022/08/24 02:00:07;;;;;;;7.10;3.95;;;;;;;23.03;72.91;100806.41;4957324;28;102274;-49
2022/08/24 02:02:35;;;;;;;5.47;3.97;;;;;;;23.02;73.01;100815.91;4953489;28;103951;-50
2022/08/24 02:05:01;;;;;;;12.00;4.00;;;;;;;23.03;73.11;100805.63;4955139;28;102247;-50
2022/08/24 02:07:30;;;;;;;6.30;4.35;;;;;;;23.04;73.12;100812.78;4954529;28;101976;-50
2022/08/24 02:09:56;;;;;;;8.32;4.32;;;;;;;23.02;73.11;100813.13;4955844;28;102170;-49
2022/08/24 02:12:24;;;;;;;8.93;4.32;;;;;;;23.03;73.09;100808.41;4954210;28;103933;-49
2022/08/24 02:14:50;;;;;;;6.05;3.97;;;;;;;23.03;72.95;100816.72;4954928;28;102120;-49
2022/08/24 02:17:19;;;;;;;9.25;4.10;;;;;;;23.01;72.79;100808.75;4942688;28;102101;-49
2022/08/24 02:19:46;;;;;;;4.90;3.88;;;;;;;23.04;73.07;100821.09;4951594;28;102174;-49
2022/08/24 02:22:13;;;;;;;8.68;5.05;;;;;;;23.03;72.96;100823.06;4953861;28;103914;-49
2022/08/24 02:24:40;;;;;;;5.00;4.15;;;;;;;23.02;72.93;100826.22;4954935;28;102326;-49
2022/08/24 02:27:07;;;;;;;7.30;4.22;;;;;;;23.03;72.92;100827.81;4954290;28;102021;-49
2022/08/24 02:29:33;;;;;;;5.88;4.72;;;;;;;23.02;72.89;100820.66;4955350;28;102132;-49
2022/08/24 02:32:00;;;;;;;8.05;4.25;;;;;;;23.03;72.83;100836.16;4954299;28;103905;-49
2022/08/24 02:34:28;;;;;;;7.95;3.92;;;;;;;23.02;73.29;100832.56;4954787;28;102353;-49
2022/08/24 02:36:54;;;;;;;7.30;4.80;;;;;;;23.02;72.98;100831.75;4943211;28;102290;-49
2022/08/24 02:39:21;;;;;;;5.70;3.95;;;;;;;23.01;73.36;100825.41;4955818;28;102049;-49
2022/08/24 02:41:48;;;;;;;6.93;4.60;;;;;;;23.02;73.23;100837.31;4955754;28;103863;-50
2022/08/24 02:44:15;;;;;;;6.10;4.20;;;;;;;23.02;73.29;100831.75;4958182;28;102238;-49
2022/08/24 02:46:42;;;;;;;7.38;4.07;;;;;;;23.02;73.36;100837.31;4957064;28;102141;-50
2022/08/24 02:49:08;;;;;;;10.50;4.53;;;;;;;23.02;73.02;100843.66;4957930;28;102251;-50
2022/08/24 02:51:40;;;;;;;5.97;4.50;;;;;;;23.04;73.11;100846.09;4955546;27;103887;-50
2022/08/24 02:54:06;;;;;;;6.82;4.57;;;;;;;23.01;72.88;100842.06;4959538;27;101945;-49
2022/08/24 02:56:33;;;;;;;5.85;4.22;;;;;;;23.02;73.22;100843.66;4957860;28;102423;-50
2022/08/24 02:59:00;;;;;;;6.82;4.22;;;;;;;23.02;73.11;100848.41;4958562;28;102282;-50
2022/08/24 03:01:27;;;;;;;5.78;4.10;;;;;;;23.01;73.18;100850.38;4956362;28;103836;-49
2022/08/24 03:03:55;;;;;;;9.43;4.45;;;;;;;23.01;72.93;100852.38;4956647;28;102541;-49
2022/08/24 03:06:22;;;;;;;7.53;5.00;;;;;;;23.01;73.32;100847.63;4956926;28;102137;-50
2022/08/24 03:08:49;;;;;;;6.63;4.72;;;;;;;23.01;72.87;100855.13;4957542;28;102134;-49
2022/08/24 03:11:17;;;;;;;6.55;4.97;;;;;;;23.01;73.05;100841.25;4956330;28;103858;-50
2022/08/24 03:13:43;;;;;;;6.10;4.47;;;;;;;23.01;73.16;100841.25;4957292;28;101942;-49
2022/08/24 03:16:10;;;;;;;5.60;4.63;;;;;;;23.01;73.16;100847.63;4956311;28;102355;-49
2022/08/24 03:18:37;;;;;;;7.97;4.88;;;;;;;23.01;72.91;100847.63;4951882;28;102197;-49
2022/08/24 03:21:05;;;;;;;6.18;4.57;;;;;;;23.01;72.96;100838.50;4936509;28;104085;-50
2022/08/24 03:23:32;;;;;;;7.95;4.93;;;;;;;23.00;73.08;100839.63;4937310;28;102146;-49
2022/08/24 03:26:00;;;;;;;6.95;4.60;;;;;;;22.99;73.05;100833.28;4940033;28;102398;-50
2022/08/24 03:28:28;;;;;;;5.60;4.50;;;;;;;22.99;72.76;100821.38;4958004;28;102166;-50
2022/08/24 03:30:54;;;;;;;7.70;4.63;;;;;;;22.99;72.80;100826.91;4955884;28;103807;-49
2022/08/24 03:33:21;;;;;;;6.20;4.72;;;;;;;22.99;72.87;100821.38;4956935;27;102184;-49
2022/08/24 03:35:48;;;;;;;7.72;5.30;;;;;;;22.98;72.63;100825.31;4956044;28;102202;-50
2022/08/24 03:38:15;;;;;;;10.10;4.93;;;;;;;22.97;72.13;100821.72;4957555;28;102678;-49
2022/08/24 03:40:42;;;;;;;7.93;5.05;;;;;;;22.96;72.54;100828.41;4955881;28;103819;-50
2022/08/24 03:43:44;;;;;;;8.30;5.43;;;;;;;22.97;72.55;100824.50;4968533;28;101942;-50
2022/08/24 03:45:57;;;;;;;7.47;4.70;;;;;;;22.99;72.38;100838.03;4955924;28;102388;-49
2022/08/24 03:48:23;;;;;;;6.30;4.20;;;;;;;22.99;72.43;100849.13;4957124;28;102245;-49
2022/08/24 03:50:50;;;;;;;6.10;4.88;;;;;;;22.98;72.36;100837.22;4961546;28;103911;-49
2022/08/24 03:53:17;;;;;;;7.20;4.63;;;;;;;22.97;72.24;100856.97;4959546;28;102252;-49
2022/08/24 03:55:43;;;;;;;9.13;4.68;;;;;;;22.98;72.25;100861.38;4957728;28;102297;-49
2022/08/24 03:58:11;;;;;;;8.20;4.57;;;;;;;22.99;72.27;100857.44;4977194;28;102222;-49
2022/08/24 04:00:41;;;;;;;6.00;5.43;;;;;;;22.97;72.10;100857.81;4957339;28;104049;-49
2022/08/24 04:03:08;;;;;;;5.88;4.95;;;;;;;22.95;71.99;100851.78;4955963;28;102328;-50
2022/08/24 04:05:36;;;;;;;8.20;4.85;;;;;;;22.98;72.22;100844.75;4955990;28;102425;-49
2022/08/24 04:08:04;;;;;;;7.57;4.70;;;;;;;22.98;72.40;100836.41;4956902;28;102338;-49
2022/08/24 04:10:32;;;;;;;8.00;4.95;;;;;;;22.96;72.34;100842.28;4955880;28;104086;-49
2022/08/24 04:13:00;;;;;;;8.73;4.90;;;;;;;22.97;72.06;100840.31;4956315;28;102109;-50
2022/08/24 04:15:28;;;;;;;8.50;5.00;;;;;;;22.95;71.93;100843.47;4947629;28;102447;-50
2022/08/24 04:17:55;;;;;;;;;;;;;;;22.96;71.97;100838.72;4949792;28;102946;-49
2022/08/24 04:20:22;;;;;;;7.25;4.45;;;;;;;22.94;71.94;100835.50;4954791;28;103958;-49
2022/08/24 04:22:50;;;;;;;8.60;4.70;;;;;;;22.96;71.96;100839.53;4956054;28;102248;-49
2022/08/24 04:25:17;;;;;;;7.85;4.78;;;;;;;22.96;72.04;100845.06;4955577;28;102261;-49
2022/08/24 04:27:43;;;;;;;6.00;4.63;;;;;;;22.96;71.96;100849.81;4956115;28;102211;-49
2022/08/24 04:30:12;;;;;;;9.88;4.88;;;;;;;22.95;71.96;100849.00;4955697;28;103897;-49
2022/08/24 04:32:40;;;;;;;6.55;4.80;;;;;;;22.96;71.82;100849.81;4955075;28;102157;-49
2022/08/24 04:35:07;;;;;;;10.95;5.00;;;;;;;22.95;71.96;100853.75;4942794;28;102423;-49
2022/08/24 04:37:34;;;;;;;9.73;5.28;;;;;;;22.98;72.05;100855.84;4936978;28;102485;-49
2022/08/24 04:40:01;;;;;;;10.05;5.15;;;;;;;22.96;72.01;100850.63;4956297;28;103927;-49
2022/08/24 04:42:30;;;;;;;8.85;5.13;;;;;;;22.95;71.85;100848.22;4975266;28;102363;-49
2022/08/24 04:44:56;;;;;;;10.20;5.15;;;;;;;22.95;71.71;100848.22;4975230;28;102389;-49
2022/08/24 04:47:23;;;;;;;8.25;4.97;;;;;;;22.95;71.88;100849.00;4939585;28;102265;-49
2022/08/24 04:49:51;;;;;;;10.85;4.82;;;;;;;22.96;71.59;100849.81;4935911;28;104123;-49
2022/08/24 04:52:17;;;;;;;9.98;5.32;;;;;;;22.95;71.87;100854.56;4943983;28;102536;-49
2022/08/24 04:54:44;;;;;;;11.85;4.57;;;;;;;22.98;72.12;100858.63;4955196;28;103442;-50
2022/08/24 04:57:11;;;;;;;10.90;5.15;;;;;;;22.97;71.93;100852.25;4956465;28;102547;-49
2022/08/24 04:59:38;;;;;;;10.88;5.93;;;;;;;22.97;72.02;100851.44;4954783;28;103934;-49
2022/08/24 05:02:04;;;;;;;13.23;4.97;;;;;;;22.98;72.14;100848.31;4955239;28;101843;-49
2022/08/24 05:04:31;;;;;;;12.48;5.32;;;;;;;22.98;71.85;100847.50;4955007;28;102197;-49
2022/08/24 05:06:59;;;;;;;12.13;5.50;;;;;;;22.99;71.70;100838.03;4956042;28;102220;-50
2022/08/24 05:09:25;;;;;;;10.13;4.93;;;;;;;22.98;71.81;100848.31;4939739;28;104009;-50
2022/08/24 05:11:54;;;;;;;18.00;5.57;;;;;;;22.98;71.72;100842.78;4935543;28;102226;-49
2022/08/24 05:14:21;;;;;;;16.95;7.03;;;;;;;22.99;71.87;100846.34;4936036;28;102190;-49
2022/08/24 05:16:47;;;;;;;15.40;5.90;;;;;;;22.99;71.67;100844.38;4947955;28;102248;-50
2022/08/24 05:19:14;;;;;;;12.77;5.47;;;;;;;23.00;71.69;100856.28;4941620;28;103879;-49
2022/08/24 05:21:43;;;;;;;14.93;5.68;;;;;;;23.00;71.56;100845.97;4974673;28;102150;-50
2022/08/24 05:24:11;;;;;;;17.17;5.68;;;;;;;23.02;71.74;100842.88;4966488;27;102412;-50
2022/08/24 05:26:38;;;;;;;11.57;4.83;;;;;;;23.03;72.04;100855.56;4939329;28;102265;-49
2022/08/24 05:29:04;;;;;;;16.77;5.78;;;;;;;23.01;71.42;100863.47;4950248;28;104167;-49
2022/08/24 05:31:32;;;;;;;17.25;5.45;;;;;;;23.03;71.87;100863.91;4954814;28;102039;-49
2022/08/24 05:34:00;;;;;;;16.90;5.40;;;;;;;23.02;71.95;100867.84;4954195;28;102299;-49
2022/08/24 05:36:29;;;;;;;11.48;5.15;;;;;;;23.05;72.15;100866.34;4956011;28;102247;-49
2022/08/24 05:38:57;;;;;;;16.75;6.13;;;;;;;23.04;72.25;100868.28;4954195;27;104003;-50
2022/08/24 05:41:25;;;;;;;12.67;5.10;;;;;;;23.05;72.14;100869.94;4954943;27;102032;-49
2022/08/24 05:43:52;;;;;;;;;;;;;;;23.05;72.19;100864.38;4951708;28;102365;-50
2022/08/24 05:46:19;;;;;;;14.57;5.47;;;;;;;23.06;71.64;100865.97;4948935;28;102399;-49
2022/08/24 05:48:46;;;;;;;13.07;4.95;;;;;;;23.06;72.04;100871.53;4954226;28;103476;-49
2022/08/24 05:51:12;;;;;;;16.27;5.85;;;;;;;23.06;69.39;100868.75;4954050;27;102328;-49
2022/08/24 05:53:40;;;;;;;21.75;6.15;;;;;;;23.08;71.29;100874.78;4963329;27;102125;-50
2022/08/24 05:56:08;;;;;;;19.20;5.78;;;;;;;23.10;68.87;100882.75;4970449;27;102219;-49
2022/08/24 05:58:37;;;;;;;22.05;7.22;;;;;;;23.13;67.67;100884.81;4953994;28;103947;-49
2022/08/24 06:01:06;;;;;;;16.15;5.78;;;;;;;23.16;66.79;100882.16;4952299;28;101992;-49
2022/08/24 06:03:33;;;;;;;21.55;5.78;;;;;;;23.20;67.55;100876.69;4953995;28;102625;-49
2022/08/24 06:06:01;;;;;;;19.30;5.50;;;;;;;23.18;68.07;100885.34;4955032;28;102140;-50
2022/08/24 06:08:29;;;;;;;19.70;5.68;;;;;;;23.20;67.62;100894.16;4953630;28;108045;-49
2022/08/24 06:10:56;;;;;;;21.20;7.10;;;;;;;23.24;66.49;100886.72;4954645;28;102295;-49
2022/08/24 06:13:23;;;;;;;31.88;9.05;;;;;;;23.27;66.14;100888.81;4953753;28;101877;-49
2022/08/24 06:16:01;;;;;;;28.88;6.38;;;;;;;23.25;67.19;100893.88;4954717;28;102360;-49
2022/08/24 06:18:28;;;;;;;25.83;6.03;;;;;;;23.28;65.45;100895.16;4950334;28;103899;-49
2022/08/24 06:20:54;;;;;;;24.98;6.60;;;;;;;23.30;66.25;100886.47;4954002;28;102245;-50
2022/08/24 06:23:21;;;;;;;27.08;6.93;;;;;;;23.32;66.88;100906.38;4938979;28;102422;-50
2022/08/24 06:28:33;;;;;;;32.90;6.47;;;;;;;23.33;66.58;100902.44;4945118;28;103747;-49
2022/08/24 06:31:02;;;;;;;32.28;7.45;;;;;;;23.31;67.88;100905.56;4949248;28;102537;-50
2022/08/24 06:33:28;;;;;;;36.95;7.47;;;;;;;23.31;67.32;100899.22;4953491;28;101995;-50
2022/08/24 06:35:55;;;;;;;26.10;6.38;;;;;;;23.34;67.76;100899.31;4955219;28;102165;-49
2022/08/24 06:38:21;;;;;;;23.33;6.70;;;;;;;23.36;66.50;100887.84;4954453;28;103829;-50
2022/08/24 06:40:48;;;;;;;30.17;7.10;;;;;;;23.34;67.43;100892.97;4968270;27;104572;-50
2022/08/24 06:43:15;;;;;;;21.50;6.15;;;;;;;23.32;69.25;100890.50;4952913;28;102532;-50
2022/08/24 06:45:42;;;;;;;28.50;7.00;;;;;;;23.35;68.26;100889.00;4954507;28;102122;-49
2022/08/24 06:48:10;;;;;;;30.33;7.00;;;;;;;23.36;68.90;100888.63;4952772;28;103844;-49
2022/08/24 06:50:38;;;;;;;30.40;6.73;;;;;;;23.36;68.48;100890.63;4945528;28;102226;-49
2022/08/24 06:53:05;;;;;;;30.08;8.15;;;;;;;23.37;68.71;100889.44;4947724;28;101949;-49
2022/08/24 06:55:32;;;;;;;24.85;6.28;;;;;;;23.38;68.91;100888.31;4954792;28;102293;-49
2022/08/24 06:57:59;;;;;;;36.95;7.72;;;;;;;23.39;69.04;100889.91;4952888;28;103880;-49
2022/08/24 07:00:26;;;;;;;30.88;7.03;;;;;;;23.37;68.87;100881.94;4954877;28;102412;-49
2022/08/24 07:02:52;;;;;;;33.13;6.95;;;;;;;23.40;68.40;100885.97;4972579;28;102151;-49
2022/08/24 07:05:20;;;;;;;40.50;6.85;;;;;;;23.40;69.52;100888.75;4974167;28;102474;-49
2022/08/24 07:07:47;;;;;;;32.92;7.97;;;;;;;23.40;68.88;100892.31;4961534;28;104203;-49
2022/08/24 07:10:13;;;;;;;25.63;10.15;;;;;;;23.42;68.69;100894.75;4953689;28;102349;-49
2022/08/24 07:12:40;;;;;;;38.78;8.45;;;;;;;23.44;68.77;100893.25;4953272;28;102298;-49
2022/08/24 07:15:07;;;;;;;29.88;6.93;;;;;;;23.45;68.82;100899.63;4954338;28;102176;-50
2022/08/24 07:17:33;;;;;;;40.00;7.78;;;;;;;23.47;68.73;100891.72;4952515;28;103931;-49
2022/08/24 07:20:00;;;;;;;34.67;7.80;;;;;;;23.47;68.61;100898.06;4953165;28;102974;-49
2022/08/24 07:22:28;;;;;;;41.97;7.35;;;;;;;23.49;68.40;100901.31;4960311;27;102564;-49
2022/08/24 07:24:54;;;;;;;35.80;7.60;;;;;;;23.51;68.46;100892.63;4951413;28;102153;-50
2022/08/24 07:27:22;;;;;;;33.00;7.45;;;;;;;23.55;67.79;100903.81;4932810;28;104239;-49
2022/08/24 07:29:52;;;;;;;29.17;7.18;;;;;;;23.53;68.76;100895.88;4939344;28;102583;-49
2022/08/24 07:32:19;;;;;;;36.85;7.60;;;;;;;23.55;67.75;100895.50;4955931;28;102088;-49
2022/08/24 07:34:45;;;;;;;38.65;6.88;;;;;;;23.56;68.53;100897.94;4960254;28;102205;-49
2022/08/24 07:37:12;;;;;;;33.17;7.78;;;;;;;23.56;68.07;100903.50;4944234;27;104007;-49
2022/08/24 07:39:40;;;;;;;43.63;7.57;;;;;;;23.57;68.40;100907.06;4936874;28;101917;-49
2022/08/24 07:42:07;;;;;;;32.33;7.47;;;;;;;23.56;68.79;100919.34;4936428;28;102138;-49
2022/08/24 07:44:34;;;;;;;44.97;7.90;;;;;;;23.58;68.14;100909.47;4937692;28;102258;-49
2022/08/24 07:47:01;;;;;;;42.55;7.47;;;;;;;23.62;68.02;100915.13;4936288;28;104008;-49
2022/08/24 07:49:27;;;;;;;38.28;7.18;;;;;;;23.61;68.24;100906.00;4955871;27;102405;-49
2022/08/24 07:51:53;;;;;;;34.42;8.27;;;;;;;23.62;68.12;100906.81;4954106;28;102161;-49
2022/08/24 07:54:20;;;;;;;30.75;7.03;;;;;;;23.64;67.74;100913.63;4956846;27;102185;-49
2022/08/24 07:56:49;;;;;;;38.08;7.88;;;;;;;23.63;68.01;100914.00;4953546;28;103925;-49
2022/08/24 07:59:15;;;;;;;;;;;;;;;23.64;67.92;100918.38;4952932;28;102141;-49
2022/08/24 08:01:42;;;;;;;47.75;8.75;;;;;;;23.66;67.91;100905.75;4955638;27;102372;-49
2022/08/24 08:04:09;;;;;;;46.72;8.55;;;;;;;23.66;67.69;100910.50;4956820;28;102486;-49
2022/08/24 08:06:35;;;;;;;40.72;8.40;;;;;;;23.67;67.81;100917.72;4951150;28;103919;-49
2022/08/24 08:09:04;;;;;;;42.47;8.02;;;;;;;23.69;67.37;100916.19;4975733;28;102215;-49
2022/08/24 08:11:30;;;;;;;39.70;9.32;;;;;;;23.68;67.52;100922.91;4977335;28;102069;-50
2022/08/24 08:13:59;;;;;;;45.95;8.15;;;;;;;23.69;67.39;100916.19;4977743;28;102105;-49
2022/08/24 08:16:26;;;;;;;43.33;8.00;;;;;;;23.72;67.00;100917.44;4957456;27;103941;-49
2022/08/24 08:18:52;;;;;;;47.33;8.75;;;;;;;23.72;66.43;100909.91;4957367;27;102309;-49
2022/08/24 08:24:19;;;;;;;45.88;7.72;;;;;;;23.73;66.70;100914.31;4970718;27;103630;-49
2022/08/24 08:26:49;;;;;;;38.63;9.00;;;;;;;23.74;66.20;100918.69;4956765;28;103891;-49
2022/08/24 08:29:18;;;;;;;39.33;7.80;;;;;;;23.76;66.14;100920.31;4957293;28;102245;-49
2022/08/24 08:31:44;;;;;;;40.90;7.60;;;;;;;23.74;66.39;100917.91;4955427;27;102085;-49
2022/08/24 08:34:11;;;;;;;49.88;8.80;;;;;;;23.76;66.45;100917.53;4938472;28;102173;-49
2022/08/24 08:36:39;;;;;;;51.45;8.38;;;;;;;23.77;65.99;100922.75;4936047;28;104156;-49
2022/08/24 08:39:07;;;;;;;42.80;8.27;;;;;;;23.74;66.07;100910.38;4936768;28;102237;-49
2022/08/24 08:42:22;;;;;;;46.93;7.97;;;;;;;23.73;66.35;100908.75;4936319;28;102052;-49
2022/08/24 08:45:14;;;;;;;43.85;6.93;;;;;;;23.75;66.15;100897.28;4938154;28;102140;-49
2022/08/24 08:48:26;;;;;;;41.13;7.32;;;;;;;23.77;66.14;100896.94;4936427;28;103999;-49
2022/08/24 08:51:23;;;;;;;48.65;7.28;;;;;;;23.74;66.34;100902.03;4940797;28;102152;-49
2022/08/24 08:54:13;;;;;;;42.60;8.07;;;;;;;23.73;66.49;100910.72;4956265;28;101931;-49
2022/08/24 08:56:53;;;;;;;46.05;8.73;;;;;;;23.76;65.81;100906.41;4948483;27;102036;-49
2022/08/24 08:59:36;;;;;;;33.50;7.07;;;;;;;23.73;65.99;100900.41;5059493;27;104008;-49
2022/08/24 09:02:16;;;;;;;37.38;8.13;;;;;;;23.76;66.04;100898.06;4936739;28;101925;-49
2022/08/24 09:05:19;;;;;;;44.25;7.60;;;;;;;23.71;66.06;100908.28;4936994;28;102372;-49
2022/08/24 09:07:57;;;;;;;39.90;7.90;;;;;;;23.71;66.18;100908.28;4971028;28;102170;-49
2022/08/24 09:10:38;;;;;;;44.67;7.20;;;;;;;23.71;66.25;100908.28;4956186;28;103934;-49
2022/08/24 09:13:36;;;;;;;39.92;7.65;;;;;;;23.71;66.17;100897.19;4956907;28;101905;-49
2022/08/24 09:16:21;;;;;;;46.58;7.53;;;;;;;23.70;66.26;100895.56;4955598;27;101899;-49
2022/08/24 09:19:10;;;;;;;53.80;7.85;;;;;;;23.71;66.23;100907.50;4957493;28;101892;-49
2022/08/24 09:21:59;;;;;;;56.10;9.38;;;;;;;23.71;66.24;100897.19;4957206;28;104076;-49
2022/08/24 09:24:57;;;;;;;39.90;7.15;;;;;;;23.70;66.24;100884.47;4941969;28;101987;-49
2022/08/24 09:27:42;;;;;;;32.65;7.63;;;;;;;23.69;66.94;100896.75;4936097;28;101930;-49
2022/08/24 09:30:12;;;;;;;43.63;7.80;;;;;;;23.68;66.80;100886.78;4938015;28;101987;-49
2022/08/24 09:32:55;;;;;;;40.05;7.10;;;;;;;23.70;66.49;100886.44;4936073;28;103997;-50
2022/08/24 09:35:32;;;;;;;40.65;7.72;;;;;;;23.68;67.37;100881.22;4936954;28;102147;-49
2022/08/24 09:38:04;;;;;;;37.03;6.75;;;;;;;23.66;67.90;100889.09;4944028;28;102127;-49
2022/08/24 09:40:49;;;;;;;39.72;7.25;;;;;;;23.66;67.75;100882.72;4957049;28;102004;-49
2022/08/24 09:43:49;;;;;;;38.72;7.90;;;;;;;23.69;66.78;100882.03;4955707;28;104156;-49
2022/08/24 09:46:56;;;;;;;41.00;7.47;;;;;;;23.72;66.51;100881.31;4956463;28;102269;-49
2022/08/24 09:49:55;;;;;;;38.37;6.53;;;;;;;23.72;66.19;100887.66;4956284;28;101959;-49
2022/08/24 09:53:10;;;;;;;29.35;6.80;;;;;;;23.72;66.34;100887.66;4956763;28;102130;-49
2022/08/24 09:55:58;;;;;;;35.30;7.03;;;;;;;23.70;66.67;100878.91;4951347;28;107967;-49
2022/08/24 09:58:38;;;;;;;30.52;6.32;;;;;;;23.69;66.66;100882.03;4943483;28;101959;-49
2022/08/24 10:01:13;;;;;;;38.60;6.32;;;;;;;23.70;67.03;100881.69;4962858;28;102743;-49
2022/08/24 10:03:52;;;;;;;36.00;7.47;;;;;;;23.68;67.56;100869.31;4944019;28;102456;-49
2022/08/24 10:06:36;;;;;;;34.13;5.97;;;;;;;23.68;67.28;100875.66;4944971;28;103883;-51
2022/08/24 10:09:30;;;;;;;40.22;7.13;;;;;;;23.67;67.25;100868.50;4946838;28;101919;-49
2022/08/24 10:12:03;;;;;;;31.40;7.30;;;;;;;23.65;67.96;100876.34;4955979;28;102149;-49
2022/08/24 10:14:43;;;;;;;34.63;6.47;;;;;;;23.65;67.27;100876.34;4956672;28;102061;-49
2022/08/24 10:17:18;;;;;;;37.30;6.97;;;;;;;23.64;68.40;100871.94;4955331;28;104192;-49
2022/08/24 10:20:01;;;;;;;31.90;6.60;;;;;;;23.65;67.64;100876.34;4955123;27;102114;-48
2022/08/24 10:22:48;;;;;;;32.58;6.88;;;;;;;23.65;67.08;100876.34;4970807;28;102718;-49
2022/08/24 10:25:30;;;;;;;27.42;6.43;;;;;;;23.68;67.14;100885.97;4976647;28;102117;-49
2022/08/24 10:28:07;;;;;;;38.13;6.90;;;;;;;23.68;67.08;100874.84;4974369;27;103807;-49
2022/08/24 10:30:51;;;;;;;29.52;5.90;;;;;;;23.65;67.37;100881.91;4974547;28;102001;-49
2022/08/24 10:33:21;;;;;;;35.22;6.38;;;;;;;23.65;66.47;100876.34;4944697;28;102284;-49
2022/08/24 10:36:12;;;;;;;36.28;6.63;;;;;;;23.64;66.53;100874.72;4967474;28;101991;-49
2022/08/24 10:42:07;;;;;;;30.35;6.35;;;;;;;23.61;69.34;100875.44;4955507;28;102026;-49
2022/08/24 10:44:48;;;;;;;29.00;6.15;;;;;;;23.60;67.75;100878.59;4955460;28;102223;-49
2022/08/24 10:47:21;;;;;;;29.10;5.72;;;;;;;23.61;68.00;100872.66;4956516;28;102223;-49
2022/08/24 10:50:20;;;;;;;31.80;5.70;;;;;;;23.62;67.07;100876.25;4953894;28;104360;-49
2022/08/24 10:53:11;;;;;;;35.97;6.32;;;;;;;23.62;65.87;100863.19;4946529;28;102272;-49
2022/08/24 10:55:38;;;;;;;24.65;5.55;;;;;;;23.63;67.78;100867.56;4954335;28;102198;-49
2022/08/24 10:58:44;;;;;;;27.58;5.05;;;;;;;23.60;69.87;100871.06;4955983;28;102117;-49
2022/08/24 11:01:30;;;;;;;33.15;5.30;;;;;;;23.59;68.04;100866.66;4952516;27;108495;-49
2022/08/24 11:04:01;;;;;;;26.33;5.47;;;;;;;23.58;69.56;100853.91;4957980;27;101923;-49
2022/08/24 11:06:30;;;;;;;30.75;6.25;;;;;;;23.56;68.59;100856.25;4956797;27;102129;-49
2022/08/24 11:09:02;;;;;;;28.20;5.35;;;;;;;23.56;69.59;100847.94;4958919;28;102318;-49
2022/08/24 11:11:32;;;;;;;30.90;5.53;;;;;;;23.54;69.87;100858.59;4954437;28;103984;-49
2022/08/24 11:14:01;;;;;;;23.75;5.03;;;;;;;23.53;69.83;100851.41;4956858;27;102271;-49
2022/08/24 11:16:34;;;;;;;25.98;5.40;;;;;;;23.55;67.87;100845.50;4949461;28;102592;-49
2022/08/24 11:19:03;;;;;;;23.50;4.63;;;;;;;23.57;68.82;100846.75;4955233;28;102211;-49
2022/08/24 11:21:35;;;;;;;;;;;;;;;23.53;70.45;100840.31;4954566;28;103964;-49
2022/08/24 11:24:05;;;;;;;22.15;5.68;;;;;;;23.54;69.36;100844.69;4957716;28;101985;-49
2022/08/24 11:26:46;;;;;;;22.67;4.43;;;;;;;23.56;68.10;100845.16;4956823;28;101925;-49
2022/08/24 11:29:12;;;;;;;20.60;4.45;;;;;;;23.53;69.82;100834.75;4973155;28;102071;-49
2022/08/24 11:31:42;;;;;;;17.90;4.07;;;;;;;23.52;69.80;100833.16;4976946;28;104106;-49
2022/08/24 11:34:14;;;;;;;18.50;4.55;;;;;;;23.53;69.96;100826.41;4977202;28;102205;-49
2022/08/24 11:36:41;;;;;;;28.20;4.40;;;;;;;23.51;70.44;100825.94;4977216;27;102020;-51
2022/08/24 11:39:16;;;;;;;21.25;4.05;;;;;;;23.52;68.25;100826.78;4959919;28;102223;-49
2022/08/24 11:41:57;;;;;;;21.52;4.28;;;;;;;23.51;70.21;100825.94;4957371;28;103743;-49
2022/08/24 11:44:38;;;;;;;25.38;4.85;;;;;;;23.50;69.33;100827.13;4963310;28;101977;-49